Brownsville South Padre Island International Airport
KBRO : now visible

Airfield :











YOU CAN JOIN US ON...

 
LOGIN :

Register | Disclaimer

   EN    FR    IT 

 









Legend :    VFR   Marginal VFR   IFR   Intensive IFR   Very Intensive IFR
Visi :
Ceiling :
>= 8 km
>= 3000ft
5 to 8 km
1000 to 3000 ft
1500m to 5 km
500 to 1000 ft
800 to 1500m
200 to 500 ft
< 800m
< 200 ft
Symbols :   Thunderstorms  Fog  Heavy snow  Heavy precipitations  Wind > 20 kt







- Airport Elevation : 22 ft
- IATA code : BRO


KBRO - Brownsville South Padre Island International

CURRENT METAR :
  • 210453Z AUTO 13005KT 10SM CLR 28/24 A2997 RMK AO2 SLP146 T02780239

EXPIRED METARs :
  • 210353Z 13008KT 10SM CLR 28/23 A2995 RMK AO2 SLP141 T02830233
  • 210253Z 13009KT 10SM CLR 29/24 A2994 RMK AO2 SLP138 T02890239 53017

TAF KBRO
Valid from the 21 at 00:00 until the 22 at 00:00 UTC


202323Z 2100/2124 14012G22KT P6SM FEW030
FM210200 14010G16KT P6SM FEW030
FM210500 14007KT P6SM FEW025
FM211500 15014G20KT P6SM SCT040
No reported NOTAMs for that airfield.



MET'MAP, your aeronautical weather chart ! - Copyright ORBIFLY December 2007 - Disclaimer

ORBIFLY MET'MAP TEAM :

Programming & Development : Alexandra Zaïnal
Concept & Development : Baudouin d'Aumeries
Co-Development & Prog : Marc-Olivier Méhu
Technical & hardware support : Manuel Goepfert

Contact : metmap@orbifly.com




SOURCES & CREDITS :

   NOAA       Earth
Advisory